Antelope, Kansas
Current Conditions -  °F | °C
As of 5:15 PM on Wednesday 22 Oct 2014 (Local Time) from KEWK Reporting Station
Few Clouds Few Clouds  
Wind Chill: 73°   Ceiling: Unl
Heat Index: 73°   Visibility: 10mi
Dew Point: 52°   Wind: 18mph
Humidity: 47%   Direction: 180°S
Pressure: 30.06"   Gusts: 23mph
Location:  38.4689°N, 96.9315°W
Report Text: KEWK 222215Z AUTO 18016G20KT 10SM FEW060 23/11 A3006 RMK AO1
Loading
Personal Weather Stations






























Interactive Weather Map
Tropical Storm Tracking
New forecast layout! Learn more

10-Day Weather Forecast

Advertisements
Track Severe Weather on mobile